Pagina principală
METAR-TAF:

METAR-TAF

Aeroporturi :

Skiathos, Grecia

Latitudine: 39-11N, longitudine: 023-30E, elevație: 15 m

Observații meteo curente

Raportul a fost făcut în urmă cu 28 de minute, la 09:20 UTC
Vânt 9 kt de la Nord/Nord-vest
Temperatură 33°C
Umiditate 56%
Presiune 1012 hPa
Vizibilitate de 10 km sau mai mult
nu există nori sub 1.500 m și nici cumulonimbus

METAR: LGSK 170920Z 34009KT CAVOK 33/23 Q1012

Ora: 12:48 (09:48 UTC)

Prognoză

Raportul a fost făcut în urmă cu 1 oră și 48 de minute, la 08:00 UTC
Prognoză valabilă de la 17 ora 09 UTC la 17 ora 18 UTC
Vânt 12 kt de la Nord
Vizibilitate de 10 km sau mai mult
nu există nori sub 1.500 m și nici cumulonimbus

TAF: LGSK 170800Z 1709/1718 01012KT CAVOK

Observații și prognoze meteo pentru peste 4.000 de aeroporturi (rapoarte METAR și TAF).

Stațiile disponibile sunt reprezentate pe hartă prin puncte galbene și roșii.

Țineți indicatorul mouse-ului pe punctul dorit pentru a vedea denumirea stației.

Apoi, faceți clic pentru a vedea observațiile și prognozele meteorologice.

Pentru a schimba harta: Pentru mărire, faceți clic pe butoanele verzi cu cruce neagră; pentru micșorare, pe butonul verde cu o liniuță; pentru hărți învecinate, pe săgețile verzi.


METAR-TAF: